Huvudsida
METAR-TAF:

METAR-TAF

Flygplatser :

Kinloss flygplats

Kinloss, Skottland

latitud: 57-39N, longitud: 003-34W, höjd: 7 m

Aktuellt väderrapport

Denna rapport gjordes för 1 timme och 11 minuter sedan, klockan 03:50 UTC
Vind 10 kt från syd/sydväst
Temperatur 12°C
Fuktighet 71%
Tryck 994 hPa
Sikt 10 km eller mer

METAR: EGQK 240350Z AUTO 20010KT 9999 FEW038/// BKN044/// 12/07 Q0994

Tid: 06:01 (05:01 UTC)


TAF: saknas

Aktuella väderrapporter och prognoser från 4000 flygplatser (METAR- och TAF-rapporter).

De tillgängliga stationerna syns som gula och röda prickar på kartan.

För musen över prickarna för att se namnen på stationerna.

Klicka sedan för att få väderrapporter och prognoser.

För att ändra kartan: Klicka på de gröna knapparna med ett svart kors på för att zooma in; den gröna knappen med ett streck på för att zooma ut; eller på de gröna pilarna för angränsande kartor.


METAR-TAF: